createdAt,value
2022-12-22T00:01:53.435Z,49.77
2022-12-22T00:04:39.098Z,49.78
2022-12-22T00:07:24.806Z,49.99
2022-12-22T00:10:10.756Z,49.91
2022-12-22T00:12:57.440Z,49.80
2022-12-22T00:15:45.462Z,50.19
2022-12-22T00:18:34.499Z,50.13
2022-12-22T00:21:20.760Z,50.32
2022-12-22T00:24:06.667Z,49.93
2022-12-22T00:26:54.198Z,50.04
2022-12-22T00:29:40.646Z,50.05
2022-12-22T00:32:32.520Z,49.61
2022-12-22T00:35:19.221Z,50.20
2022-12-22T00:38:05.135Z,49.79
2022-12-22T00:40:51.075Z,50.41
2022-12-22T00:43:36.796Z,49.98
2022-12-22T00:46:23.075Z,50.50
2022-12-22T00:53:21.513Z,50.09
2022-12-22T00:56:07.377Z,50.22
2022-12-22T00:58:54.366Z,50.16
2022-12-22T01:01:40.417Z,50.22
2022-12-22T01:04:29.020Z,50.58
2022-12-22T01:07:15.331Z,50.16
2022-12-22T01:10:09.302Z,50.66
2022-12-22T01:12:58.040Z,50.02
2022-12-22T01:15:45.403Z,50.25
2022-12-22T01:18:31.919Z,50.27
2022-12-22T01:21:17.518Z,50.09
2022-12-22T01:24:04.301Z,50.04
2022-12-22T01:26:51.943Z,50.45
2022-12-22T01:29:37.753Z,50.35
2022-12-22T01:32:24.179Z,49.94
2022-12-22T01:35:09.982Z,50.18
2022-12-22T01:37:55.871Z,50.10
2022-12-22T01:40:44.124Z,50.41
2022-12-22T01:43:40.968Z,50.58
2022-12-22T01:46:44.901Z,50.55
2022-12-22T01:49:37.026Z,50.32
2022-12-22T01:52:25.276Z,50.88
2022-12-22T01:55:13.621Z,50.84
2022-12-22T01:57:59.679Z,50.17
2022-12-22T02:00:47.250Z,50.29
2022-12-22T02:03:35.050Z,50.57
2022-12-22T02:06:40.802Z,50.76
2022-12-22T02:09:50.055Z,50.76
2022-12-22T02:12:47.220Z,50.43
2022-12-22T02:15:42.410Z,50.92
2022-12-22T02:18:39.974Z,50.84
2022-12-22T02:21:32.295Z,50.54
2022-12-22T02:24:40.142Z,50.98
2022-12-22T02:27:28.952Z,50.47
2022-12-22T02:30:21.141Z,50.91
2022-12-22T02:33:10.082Z,50.45
2022-12-22T02:36:04.566Z,50.48
2022-12-22T02:39:03.634Z,50.66
2022-12-22T02:42:01.832Z,50.28
2022-12-22T02:45:01.217Z,50.87
2022-12-22T02:47:54.328Z,50.50
2022-12-22T02:50:46.129Z,50.48
2022-12-22T02:53:34.448Z,50.38
2022-12-22T02:56:24.582Z,50.51
2022-12-22T02:59:11.086Z,50.57
2022-12-22T03:02:00.724Z,50.66
2022-12-22T03:04:46.443Z,50.59
2022-12-22T03:07:32.551Z,50.66
2022-12-22T03:10:18.462Z,50.72
2022-12-22T03:13:04.407Z,50.72
2022-12-22T03:15:50.186Z,50.23
2022-12-22T03:18:37.339Z,50.03
2022-12-22T03:21:23.708Z,50.09
2022-12-22T03:24:09.297Z,50.30
2022-12-22T03:26:39.082Z,50.40
2022-12-22T03:29:07.731Z,50.01
2022-12-22T03:31:36.181Z,49.55
2022-12-22T03:34:06.016Z,49.99
2022-12-22T03:36:34.475Z,50.35
2022-12-22T03:39:02.924Z,50.16
2022-12-22T03:41:48.576Z,49.95
2022-12-22T03:44:34.481Z,50.04
2022-12-22T03:47:02.891Z,50.27
2022-12-22T03:49:33.007Z,50.47
2022-12-22T03:52:01.422Z,50.64
2022-12-22T03:54:29.803Z,50.56
2022-12-22T03:56:59.203Z,50.39
2022-12-22T03:59:27.647Z,50.55
2022-12-22T04:01:56.706Z,50.34
2022-12-22T04:04:27.705Z,50.38
2022-12-22T04:06:57.566Z,50.42
2022-12-22T04:09:27.368Z,50.68
2022-12-22T04:12:28.051Z,50.03
2022-12-22T04:14:56.424Z,49.84
2022-12-22T04:17:24.813Z,50.77
2022-12-22T04:19:53.203Z,50.00
2022-12-22T04:22:22.961Z,50.47
2022-12-22T04:24:51.372Z,50.65
2022-12-22T04:27:19.771Z,51.00
2022-12-22T04:29:48.187Z,50.24
2022-12-22T04:32:16.699Z,50.64
2022-12-22T04:34:45.135Z,50.64
2022-12-22T04:37:17.450Z,51.12
2022-12-22T04:39:47.600Z,51.16
2022-12-22T04:42:16.156Z,50.73
2022-12-22T04:44:44.557Z,51.02
2022-12-22T04:47:12.962Z,51.00
2022-12-22T04:49:41.388Z,50.47
2022-12-22T04:52:09.958Z,50.70
2022-12-22T04:54:38.725Z,50.82
2022-12-22T04:57:08.587Z,50.88
2022-12-22T04:59:36.985Z,50.54
2022-12-22T05:02:05.699Z,51.11
2022-12-22T05:04:34.185Z,50.80
2022-12-22T05:07:02.673Z,50.46
2022-12-22T05:09:31.053Z,50.80
2022-12-22T05:11:59.486Z,50.28
2022-12-22T05:14:29.301Z,50.63
2022-12-22T05:16:57.770Z,50.47
2022-12-22T05:19:30.754Z,50.53
2022-12-22T05:21:59.567Z,50.91
2022-12-22T05:24:27.934Z,50.74
2022-12-22T05:26:56.301Z,50.55
2022-12-22T05:29:24.921Z,50.94
2022-12-22T05:31:54.661Z,50.32
2022-12-22T05:34:23.148Z,50.32
2022-12-22T05:36:51.561Z,50.78
2022-12-22T05:39:19.992Z,50.41
2022-12-22T05:41:48.454Z,50.28
2022-12-22T05:44:16.944Z,50.98
2022-12-22T05:46:45.479Z,50.30
2022-12-22T05:49:15.360Z,50.36
2022-12-22T05:51:43.769Z,50.63
2022-12-22T05:54:12.532Z,51.12
2022-12-22T05:56:40.917Z,50.38
2022-12-22T05:59:09.303Z,50.66
2022-12-22T06:01:37.744Z,50.81
2022-12-22T06:04:06.655Z,50.43
2022-12-22T06:06:36.559Z,51.15
2022-12-22T06:09:05.115Z,50.36
2022-12-22T06:11:33.534Z,50.64
2022-12-22T06:14:01.929Z,50.75
2022-12-22T06:16:30.412Z,50.76
2022-12-22T06:18:58.845Z,50.92
2022-12-22T06:21:27.295Z,50.85
2022-12-22T06:23:57.023Z,51.17
2022-12-22T06:26:25.391Z,50.97
2022-12-22T06:28:53.781Z,50.54
2022-12-22T06:31:22.244Z,50.62
2022-12-22T06:33:50.728Z,50.74
2022-12-22T06:36:19.142Z,51.30
2022-12-22T06:38:47.549Z,50.49
2022-12-22T06:41:37.888Z,50.65
2022-12-22T06:44:05.744Z,50.54
2022-12-22T06:46:34.414Z,51.44
2022-12-22T06:49:02.925Z,51.07
2022-12-22T06:51:31.341Z,51.04
2022-12-22T06:53:59.735Z,51.27
2022-12-22T06:56:29.589Z,50.90
2022-12-22T06:58:58.016Z,50.79
2022-12-22T07:01:26.532Z,50.71
2022-12-22T07:03:56.363Z,51.27
2022-12-22T07:06:24.793Z,50.58
2022-12-22T07:08:53.269Z,50.63
2022-12-22T07:11:21.714Z,50.39
2022-12-22T07:13:51.456Z,51.53
2022-12-22T07:16:19.939Z,50.88
2022-12-22T07:18:48.386Z,51.33
2022-12-22T07:21:17.147Z,51.42
2022-12-22T07:23:45.631Z,51.23
2022-12-22T07:26:14.652Z,50.69
2022-12-22T07:28:43.662Z,51.11
2022-12-22T07:31:14.309Z,51.33
2022-12-22T07:33:42.741Z,51.19
2022-12-22T07:36:15.373Z,50.67
2022-12-22T07:38:46.570Z,51.60
2022-12-22T07:41:34.289Z,50.73
2022-12-22T07:44:03.485Z,51.39
2022-12-22T07:46:37.095Z,50.94
2022-12-22T07:49:24.975Z,50.79
2022-12-22T07:51:56.671Z,51.51
2022-12-22T07:54:25.628Z,51.24
2022-12-22T07:56:54.547Z,50.89
2022-12-22T07:59:23.082Z,51.02
2022-12-22T08:01:53.092Z,51.19
2022-12-22T08:04:22.538Z,50.75
2022-12-22T08:06:51.107Z,51.35
2022-12-22T08:09:21.772Z,51.27
2022-12-22T08:11:50.912Z,51.38
2022-12-22T08:14:19.432Z,51.08
2022-12-22T08:16:47.963Z,51.48
2022-12-22T08:19:17.883Z,51.56
2022-12-22T08:21:52.507Z,51.00
2022-12-22T08:24:22.787Z,50.74
2022-12-22T08:26:55.930Z,51.24
2022-12-22T08:29:29.055Z,50.97
2022-12-22T08:31:57.713Z,51.11
2022-12-22T08:34:27.878Z,51.26
2022-12-22T08:37:02.010Z,51.14
2022-12-22T08:39:36.305Z,50.80
2022-12-22T08:42:06.854Z,50.98
2022-12-22T08:44:35.380Z,51.31
2022-12-22T08:47:03.941Z,51.02
2022-12-22T08:49:34.004Z,50.79
2022-12-22T08:52:02.467Z,51.02
2022-12-22T08:54:30.890Z,50.85
2022-12-22T08:56:59.781Z,51.15
2022-12-22T08:59:28.306Z,51.29
2022-12-22T09:01:56.946Z,50.92
2022-12-22T09:04:25.630Z,50.86
2022-12-22T09:06:55.485Z,50.94
2022-12-22T09:09:24.127Z,50.78
2022-12-22T09:11:52.797Z,50.83
2022-12-22T09:14:21.247Z,50.83
2022-12-22T09:16:50.553Z,50.62
2022-12-22T09:19:19.618Z,50.72
2022-12-22T09:21:48.121Z,50.70
2022-12-22T09:24:18.405Z,50.95
2022-12-22T09:26:46.973Z,50.51
2022-12-22T09:29:17.065Z,50.72
2022-12-22T09:31:45.743Z,50.40
2022-12-22T09:34:18.095Z,50.28
2022-12-22T09:36:47.931Z,50.79
2022-12-22T09:39:22.190Z,50.55
2022-12-22T09:41:55.905Z,50.49
2022-12-22T09:44:28.590Z,50.55
2022-12-22T09:46:59.487Z,50.99
2022-12-22T09:49:28.738Z,50.72
2022-12-22T09:52:00.853Z,50.93
2022-12-22T09:54:32.101Z,50.60
2022-12-22T09:57:00.964Z,50.59
2022-12-22T09:59:31.336Z,50.69
2022-12-22T10:02:20.892Z,50.48
2022-12-22T10:05:14.033Z,50.70
2022-12-22T10:07:43.794Z,50.76
2022-12-22T10:10:25.496Z,50.66
2022-12-22T10:12:55.601Z,51.27
2022-12-22T10:15:24.988Z,51.07
2022-12-22T10:18:10.935Z,50.90
2022-12-22T10:20:40.669Z,51.13
2022-12-22T10:23:19.385Z,51.16
2022-12-22T10:29:01.142Z,51.23
2022-12-22T10:31:32.178Z,51.33
2022-12-22T10:34:16.435Z,51.11
2022-12-22T10:36:50.074Z,51.36
2022-12-22T10:39:24.825Z,51.50
2022-12-22T10:41:58.191Z,51.04
2022-12-22T10:44:29.907Z,51.25
2022-12-22T10:47:01.315Z,51.20
2022-12-22T10:52:15.892Z,51.15
2022-12-22T10:54:46.049Z,51.16
2022-12-22T10:57:31.558Z,51.14
2022-12-22T11:00:02.389Z,51.19
2022-12-22T11:02:37.901Z,50.73
2022-12-22T11:05:09.767Z,50.91
2022-12-22T11:07:40.602Z,50.92
2022-12-22T11:10:27.561Z,50.99
2022-12-22T11:13:44.741Z,51.03
2022-12-22T11:16:25.733Z,50.75
2022-12-22T11:19:10.957Z,50.95
2022-12-22T11:21:47.513Z,51.02
2022-12-22T11:24:32.554Z,50.79
2022-12-22T11:27:21.744Z,50.69
2022-12-22T11:30:09.417Z,51.07
2022-12-22T11:33:08.109Z,51.01
2022-12-22T11:35:58.639Z,51.00
2022-12-22T11:38:47.539Z,51.14
2022-12-22T11:41:33.409Z,51.19
2022-12-22T11:44:30.397Z,51.15
2022-12-22T11:47:09.984Z,51.22
2022-12-22T11:50:00.292Z,51.33
2022-12-22T11:53:02.881Z,51.34
2022-12-22T11:55:35.980Z,51.04
2022-12-22T11:58:32.695Z,51.15
2022-12-22T12:01:25.712Z,51.14
2022-12-22T12:04:33.826Z,51.24
2022-12-22T12:07:26.224Z,51.25
2022-12-22T12:10:08.220Z,50.77
2022-12-22T12:12:49.576Z,50.65
2022-12-22T12:15:32.362Z,50.90
2022-12-22T12:18:39.976Z,50.99
2022-12-22T12:21:30.039Z,51.03
2022-12-22T12:24:36.981Z,51.29
2022-12-22T12:27:13.192Z,50.96
2022-12-22T12:30:36.256Z,51.08
2022-12-22T12:32:57.091Z,51.03
2022-12-22T12:35:47.813Z,51.32
2022-12-22T12:39:06.371Z,50.89
2022-12-22T12:41:28.814Z,50.87
2022-12-22T12:43:59.085Z,50.92
2022-12-22T12:46:56.522Z,51.02
2022-12-22T12:50:02.348Z,50.98
2022-12-22T12:53:18.552Z,51.11
2022-12-22T12:56:07.998Z,51.03
2022-12-22T12:58:54.398Z,51.12
2022-12-22T13:02:01.210Z,50.90
2022-12-22T13:05:12.873Z,50.98
2022-12-22T13:08:21.788Z,51.06
2022-12-22T13:14:58.259Z,51.25
2022-12-22T13:17:49.824Z,51.23
2022-12-22T13:20:25.992Z,51.16
2022-12-22T13:22:56.902Z,51.07
2022-12-22T13:25:37.090Z,51.03
2022-12-22T13:28:06.730Z,51.12
2022-12-22T13:30:35.431Z,51.01
2022-12-22T13:33:04.340Z,50.93
2022-12-22T13:35:46.685Z,51.06
2022-12-22T13:38:36.138Z,51.10
2022-12-22T13:41:22.982Z,50.88
2022-12-22T13:43:58.439Z,51.15
2022-12-22T13:46:28.043Z,50.95
2022-12-22T13:49:00.532Z,51.14
2022-12-22T13:51:33.180Z,51.03
2022-12-22T13:54:09.309Z,50.95
2022-12-22T13:56:45.612Z,50.96
2022-12-22T13:59:28.707Z,50.85
2022-12-22T14:02:01.299Z,50.87
2022-12-22T14:04:31.143Z,50.62
2022-12-22T14:07:10.717Z,50.69
2022-12-22T14:09:39.169Z,50.60
2022-12-22T14:12:16.153Z,50.55
2022-12-22T14:14:47.201Z,50.60
2022-12-22T14:17:26.555Z,50.76
2022-12-22T14:19:58.225Z,50.95
2022-12-22T14:22:31.406Z,50.94
2022-12-22T14:25:05.546Z,50.91
2022-12-22T14:27:40.145Z,50.98
2022-12-22T14:30:19.324Z,51.19
2022-12-22T14:32:54.899Z,51.04
2022-12-22T14:35:31.235Z,51.27
2022-12-22T14:38:24.707Z,51.30
2022-12-22T14:40:57.295Z,51.18
2022-12-22T14:43:32.487Z,51.29
2022-12-22T14:46:08.559Z,51.40
2022-12-22T14:48:41.101Z,51.47
2022-12-22T14:51:09.622Z,51.53
2022-12-22T14:53:48.457Z,51.45
2022-12-22T14:56:18.722Z,51.64
2022-12-22T14:58:50.471Z,51.53
2022-12-22T15:01:25.060Z,51.78
2022-12-22T15:04:02.867Z,51.73
2022-12-22T15:06:44.697Z,51.63
2022-12-22T15:12:19.418Z,51.43
2022-12-22T15:14:50.029Z,51.59
2022-12-22T15:17:25.528Z,51.38
2022-12-22T15:19:58.811Z,51.40
2022-12-22T15:22:27.333Z,51.66
2022-12-22T15:24:55.722Z,51.47
2022-12-22T15:27:24.122Z,51.37
2022-12-22T15:29:53.956Z,51.63
2022-12-22T15:32:22.414Z,51.47
2022-12-22T15:34:50.877Z,51.39
2022-12-22T15:37:19.314Z,51.24
2022-12-22T15:39:47.887Z,51.35
2022-12-22T15:42:16.412Z,51.22
2022-12-22T15:44:44.826Z,51.25
2022-12-22T15:47:14.931Z,51.34
2022-12-22T15:49:43.468Z,51.43
2022-12-22T15:52:14.853Z,51.35
2022-12-22T15:54:43.462Z,51.40
2022-12-22T15:57:14.606Z,51.40
2022-12-22T15:59:43.076Z,51.15
2022-12-22T16:02:15.248Z,51.46
2022-12-22T16:04:43.899Z,51.33
2022-12-22T16:07:13.432Z,51.56
2022-12-22T16:09:43.832Z,51.20
2022-12-22T16:12:15.237Z,51.46
2022-12-22T16:14:49.954Z,51.39
2022-12-22T16:17:26.841Z,51.29
2022-12-22T16:19:55.466Z,51.20
2022-12-22T16:22:32.518Z,51.29
2022-12-22T16:25:03.547Z,51.34
2022-12-22T16:27:32.508Z,51.13
2022-12-22T16:30:00.985Z,51.37
2022-12-22T16:32:33.505Z,51.62
2022-12-22T16:35:15.236Z,51.71
2022-12-22T16:37:43.895Z,51.54
2022-12-22T16:40:13.716Z,51.65
2022-12-22T16:45:36.200Z,51.44
2022-12-22T16:48:16.301Z,51.57
2022-12-22T16:50:48.108Z,51.41
2022-12-22T16:53:16.996Z,51.51
2022-12-22T16:55:45.443Z,51.49
2022-12-22T16:58:14.431Z,51.49
2022-12-22T17:00:46.639Z,51.31
2022-12-22T17:03:22.392Z,51.67
2022-12-22T17:05:54.301Z,51.46
2022-12-22T17:08:27.050Z,51.54
2022-12-22T17:10:58.127Z,51.65
2022-12-22T17:13:27.681Z,51.59
2022-12-22T17:15:56.217Z,51.78
2022-12-22T17:18:27.264Z,51.67
2022-12-22T17:20:58.241Z,52.01
2022-12-22T17:23:34.204Z,51.87
2022-12-22T17:26:07.025Z,51.87
2022-12-22T17:28:36.697Z,51.75
2022-12-22T17:31:05.323Z,51.76
2022-12-22T17:33:35.389Z,51.87
2022-12-22T17:36:04.336Z,51.84
2022-12-22T17:38:32.766Z,51.63
2022-12-22T17:41:03.256Z,51.97
2022-12-22T17:43:31.762Z,52.04
2022-12-22T17:46:00.445Z,51.88
2022-12-22T17:48:29.017Z,52.45
2022-12-22T17:50:58.829Z,52.29
2022-12-22T17:53:27.335Z,52.16
2022-12-22T17:56:11.152Z,52.28
2022-12-22T17:58:39.577Z,52.45
2022-12-22T18:01:13.391Z,52.53
2022-12-22T18:03:42.090Z,52.50
2022-12-22T18:06:17.644Z,52.38
2022-12-22T18:08:47.413Z,52.55
2022-12-22T18:11:16.299Z,52.69
2022-12-22T18:13:45.055Z,52.43
2022-12-22T18:16:20.441Z,52.83
2022-12-22T18:18:49.943Z,52.67
2022-12-22T18:21:23.950Z,52.42
2022-12-22T18:23:53.579Z,52.45
2022-12-22T18:26:25.780Z,52.91
2022-12-22T18:28:55.924Z,52.96
2022-12-22T18:31:25.955Z,53.03
2022-12-22T18:33:55.272Z,52.79
2022-12-22T18:36:32.644Z,53.02
2022-12-22T18:39:03.153Z,53.07
2022-12-22T18:41:35.956Z,52.84
2022-12-22T18:44:04.658Z,52.79
2022-12-22T18:46:33.252Z,53.01
2022-12-22T18:49:05.861Z,53.33
2022-12-22T18:51:36.312Z,53.52
2022-12-22T18:54:05.043Z,53.65
2022-12-22T18:56:33.708Z,53.75
2022-12-22T18:59:02.387Z,53.55
2022-12-22T19:01:31.048Z,53.91
2022-12-22T19:04:00.165Z,53.53
2022-12-22T19:06:30.560Z,53.77
2022-12-22T19:09:00.352Z,53.79
2022-12-22T19:11:32.114Z,54.06
2022-12-22T19:14:01.487Z,54.12
2022-12-22T19:16:30.237Z,54.25
2022-12-22T19:19:01.624Z,54.61
2022-12-22T19:21:30.117Z,54.45
2022-12-22T19:24:01.287Z,54.63
2022-12-22T19:26:30.667Z,54.83
2022-12-22T19:29:02.587Z,54.81
2022-12-22T19:31:34.437Z,54.91
2022-12-22T19:34:08.034Z,55.15
2022-12-22T19:36:36.923Z,54.81
2022-12-22T19:39:07.364Z,54.88
2022-12-22T19:41:43.146Z,55.21
2022-12-22T19:44:22.293Z,54.65
2022-12-22T19:46:51.710Z,54.63
2022-12-22T19:49:23.036Z,54.81
2022-12-22T19:51:52.460Z,54.93
2022-12-22T19:54:22.296Z,54.79
2022-12-22T19:56:56.225Z,54.85
2022-12-22T19:59:38.552Z,54.60
2022-12-22T20:02:27.177Z,54.56
2022-12-22T20:04:56.968Z,54.30
2022-12-22T20:07:27.945Z,54.21
2022-12-22T20:09:58.280Z,54.00
2022-12-22T20:12:31.827Z,53.84
2022-12-22T20:15:01.722Z,53.74
2022-12-22T20:17:31.273Z,53.72
2022-12-22T20:20:00.205Z,53.82
2022-12-22T20:22:30.823Z,53.48
2022-12-22T20:25:01.851Z,53.69
2022-12-22T20:27:35.223Z,53.69
2022-12-22T20:30:04.009Z,53.62
2022-12-22T20:32:32.883Z,53.64
2022-12-22T20:35:02.088Z,53.56
2022-12-22T20:37:31.502Z,53.39
2022-12-22T20:40:01.714Z,53.27
2022-12-22T20:42:31.378Z,53.34
2022-12-22T20:45:03.287Z,53.17
2022-12-22T20:47:34.319Z,53.15
2022-12-22T20:50:03.831Z,52.93
2022-12-22T20:52:33.606Z,53.04
2022-12-22T20:55:03.956Z,52.95
2022-12-22T20:57:33.302Z,52.91
2022-12-22T21:00:02.265Z,52.87
2022-12-22T21:02:31.277Z,52.82
2022-12-22T21:05:00.067Z,52.74
2022-12-22T21:07:28.646Z,52.54
2022-12-22T21:09:57.097Z,52.49
2022-12-22T21:12:27.037Z,52.27
2022-12-22T21:14:55.519Z,52.28
2022-12-22T21:17:23.911Z,52.32
2022-12-22T21:19:52.700Z,52.34
2022-12-22T21:22:21.208Z,52.25
2022-12-22T21:24:49.673Z,52.14
2022-12-22T21:27:21.566Z,52.07
2022-12-22T21:29:51.435Z,52.10
2022-12-22T21:32:19.819Z,52.02
2022-12-22T21:34:48.285Z,52.19
2022-12-22T21:37:19.869Z,51.79
2022-12-22T21:39:48.384Z,51.71
2022-12-22T21:42:17.514Z,51.58
2022-12-22T21:44:46.379Z,51.59
2022-12-22T21:47:20.767Z,51.39
2022-12-22T21:49:53.539Z,51.38
2022-12-22T21:52:23.104Z,51.36
2022-12-22T21:54:53.896Z,51.25
2022-12-22T21:57:27.970Z,51.14
2022-12-22T21:59:57.723Z,51.18
2022-12-22T22:02:28.237Z,51.06
2022-12-22T22:04:56.746Z,51.09
2022-12-22T22:07:25.309Z,50.97
2022-12-22T22:09:54.039Z,51.04
2022-12-22T22:12:36.170Z,50.92
2022-12-22T22:15:05.363Z,51.01
2022-12-22T22:17:35.174Z,51.03
2022-12-22T22:20:03.750Z,50.91
2022-12-22T22:22:32.211Z,51.07
2022-12-22T22:25:00.596Z,51.11
2022-12-22T22:27:29.077Z,51.03
2022-12-22T22:29:57.503Z,51.08
2022-12-22T22:32:25.979Z,50.96
2022-12-22T22:34:55.869Z,51.01
2022-12-22T22:37:24.394Z,50.97
2022-12-22T22:39:53.411Z,50.93
2022-12-22T22:42:21.802Z,50.99
2022-12-22T22:44:50.229Z,50.97
2022-12-22T22:47:18.773Z,50.98
2022-12-22T22:49:47.202Z,50.96
2022-12-22T22:52:17.012Z,50.72
2022-12-22T22:54:45.407Z,50.93
2022-12-22T22:57:13.853Z,50.76
2022-12-22T22:59:42.245Z,50.80
2022-12-22T23:02:11.377Z,50.61
2022-12-22T23:04:39.890Z,50.44
2022-12-22T23:07:08.312Z,50.39
2022-12-22T23:09:38.199Z,50.40
2022-12-22T23:12:07.666Z,50.44
2022-12-22T23:14:36.322Z,50.37
2022-12-22T23:17:04.743Z,50.46
2022-12-22T23:19:33.185Z,50.45
2022-12-22T23:22:01.696Z,50.46
2022-12-22T23:24:31.312Z,50.59
2022-12-22T23:27:01.905Z,50.59
2022-12-22T23:29:30.566Z,50.49
2022-12-22T23:31:59.050Z,50.47
2022-12-22T23:34:27.640Z,50.52
2022-12-22T23:36:56.092Z,50.65
2022-12-22T23:39:24.790Z,50.66
2022-12-22T23:41:53.195Z,50.77
2022-12-22T23:44:23.035Z,50.81
2022-12-22T23:46:51.488Z,50.85
2022-12-22T23:49:19.951Z,50.82
2022-12-22T23:51:48.364Z,50.91
2022-12-22T23:54:16.764Z,50.96
2022-12-22T23:56:45.127Z,50.98
2022-12-22T23:59:13.574Z,50.93
